Airfield :
LOGIN :

Register | Disclaimer

   EN    FR    IT 

 










Legend :    VFR   Marginal VFR   IFR   Intensive IFR   Very Intensive IFR
Visi :
Ceiling :
>= 8 km
>= 3000ft
5 to 8 km
1000 to 3000 ft
1500m to 5 km
500 to 1000 ft
800 to 1500m
200 to 500 ft
< 800m
< 200 ft
Symbols :   Thunderstorms  Fog  Heavy snow  Heavy precipitations  Wind > 20 kt
SIGMETs :     Misc.  Thunderstorms  Icing  Turbulence  Mountain Waves  Volcanic Ashes






- Airport Elevation : 13 ft
- IATA code : CAG


LIEE - Cagliari Elmas

CURRENT METAR :
  • 050650Z 31010KT 280V350 9999 FEW025 SCT045 20/16 Q1005

EXPIRED METARs :
  • 050620Z 27013KT 9999 FEW025 SCT050 19/16 Q1004
  • 050550Z 26007KT 9999 FEW025 19/15 Q1004
  • 050520Z 26009KT 9999 FEW025 19/15 Q1004
  • 050450Z 28010KT CAVOK 19/15 Q1004
  • 050420Z 27010KT 9999 FEW030 18/15 Q1003

TAF TAF LIEE
Valid from the 05 at 06:00 until the 06 at 06:00 UTC


050500Z 0506/0606 28010KT 9999 SCT030
TEMPO 0506/0509 4000 TSRA
BECMG 0507/0509 33018G28KT



MET'MAP, your aeronautical weather chart ! - Copyright ORBIFLY December 2007 - Disclaimer

ORBIFLY MET'MAP TEAM :

Programming & Development : Alexandra Zaïnal
Concept & original design : Baudouin d'Aumeries
Assistance for programming : Marc-Olivier Méhu
Technical & hardware support : Manuel Goepfert

Contact : metmap@orbifly.com




SOURCES & CREDITS :

   NOAA